Time;durP1;ratioP1;P1;durP2;ratioP2;P2;SDS_P1;SDS_P2;PMS_P1;PMS_P2;Temp;Humidity;BMP_temperature;BMP_pressure;BME280_temperature;BME280_humidity;BME280_pressure;Samples;Min_cycle;Max_cycle;Signal;HPM_P1;HPM_P2
2022/07/02 00:01:49;;;;;;;8.70;4.12;;;;;;;26.14;46.80;100128.72;1431158;89;21376;-92
2022/07/02 00:04:23;;;;;;;6.35;3.55;;;;;;;26.13;46.87;100142.01;1446987;88;21294;-92
2022/07/02 00:06:55;;;;;;;5.75;3.17;;;;;;;26.06;48.52;100144.91;1430641;89;21650;-91
2022/07/02 00:09:24;;;;;;;5.30;4.12;;;;;;;25.85;49.78;100164.23;1431654;91;21531;-91
2022/07/02 00:11:54;;;;;;;7.47;4.42;;;;;;;25.79;49.64;100179.59;1435221;89;22411;-93
2022/07/02 00:14:21;;;;;;;11.83;5.28;;;;;;;25.70;50.95;100196.56;1434189;88;21368;-92
2022/07/02 00:16:49;;;;;;;19.00;5.78;;;;;;;25.63;51.94;100185.89;1457205;88;21360;-92
2022/07/02 00:19:16;;;;;;;8.58;5.75;;;;;;;25.66;52.78;100184.03;1430898;89;21429;-92
2022/07/02 00:21:44;;;;;;;11.90;5.47;;;;;;;25.66;52.86;100183.52;1442035;89;21398;-92
2022/07/02 00:24:11;;;;;;;17.50;5.95;;;;;;;25.61;55.26;100191.58;1407337;93;21583;-92
2022/07/02 00:26:42;;;;;;;22.55;8.18;;;;;;;25.48;55.71;100197.91;1384225;94;21481;-92
2022/07/02 00:29:35;;;;;;;14.93;5.80;;;;;;;25.43;55.84;100181.89;1425945;91;21584;-92
2022/07/02 00:32:05;;;;;;;11.97;6.33;;;;;;;25.42;56.13;100172.64;1402494;93;21642;-91
2022/07/02 00:34:34;;;;;;;18.10;7.40;;;;;;;25.38;56.39;100204.03;1406403;93;22434;-91
2022/07/02 00:37:03;;;;;;;16.57;6.37;;;;;;;25.24;58.26;100205.45;1385531;94;22389;-92
2022/07/02 00:39:30;;;;;;;11.83;6.33;;;;;;;25.16;58.50;100199.92;1392750;93;21590;-91
2022/07/02 00:41:59;;;;;;;17.75;6.85;;;;;;;25.01;59.39;100205.91;1450265;89;23568;-91
2022/07/02 00:44:26;;;;;;;10.58;6.03;;;;;;;24.91;59.89;100202.50;1396485;92;21585;-91
2022/07/02 00:46:55;;;;;;;12.35;5.28;;;;;;;24.80;60.71;100214.78;1450355;90;21339;-92
2022/07/02 00:49:22;;;;;;;13.43;5.87;;;;;;;24.69;61.25;100228.16;1465610;88;22035;-91
2022/07/02 00:51:51;;;;;;;15.55;5.45;;;;;;;24.63;61.25;100225.09;1423897;91;21553;-92
2022/07/02 00:54:18;;;;;;;15.13;6.87;;;;;;;24.63;61.59;100221.53;1476331;88;21464;-92
2022/07/02 00:56:46;;;;;;;16.42;6.35;;;;;;;24.62;61.98;100220.72;1413035;91;21510;-92
2022/07/02 00:59:14;;;;;;;11.60;6.03;;;;;;;24.60;62.38;100218.81;1432066;90;21383;-92
2022/07/02 01:01:41;;;;;;;12.85;6.28;;;;;;;24.53;63.42;100235.19;1433915;90;21620;-93
2022/07/02 01:04:10;;;;;;;21.97;7.92;;;;;;;24.50;63.41;100236.21;1446364;90;21582;-91
2022/07/02 01:06:42;;;;;;;14.33;6.53;;;;;;;24.47;63.51;100238.05;1458872;90;22572;-92
2022/07/02 01:12:02;;;;;;;14.28;6.37;;;;;;;24.43;64.13;100224.74;1404338;93;21488;-92
2022/07/02 01:14:30;;;;;;;26.07;7.78;;;;;;;24.35;64.84;100223.22;1408913;92;22390;-92
2022/07/02 01:16:57;;;;;;;12.68;5.85;;;;;;;24.26;65.25;100237.66;1406085;93;21436;-92
2022/07/02 01:19:24;;;;;;;17.52;6.80;;;;;;;24.19;65.14;100223.45;1406259;93;21347;-93
2022/07/02 01:22:17;;;;;;;15.85;6.75;;;;;;;24.17;65.33;100221.55;1455462;89;21464;-92
2022/07/02 01:24:48;;;;;;;14.35;6.17;;;;;;;24.13;65.62;100215.50;1453689;90;21487;-93
2022/07/02 01:27:18;;;;;;;15.72;7.10;;;;;;;24.04;66.43;100209.13;1446480;89;22402;-92
2022/07/02 01:29:45;;;;;;;18.52;7.58;;;;;;;23.94;67.38;100205.41;1400701;93;21428;-92
2022/07/02 01:32:13;;;;;;;21.90;6.85;;;;;;;23.92;67.23;100206.20;1439192;91;21421;-92
2022/07/02 01:34:49;;;;;;;14.20;6.40;;;;;;;23.92;67.37;100208.36;1440083;89;21508;-92
2022/07/02 01:37:21;;;;;;;16.73;6.70;;;;;;;23.94;67.62;100205.41;1462568;89;21376;-91
2022/07/02 01:39:49;;;;;;;15.23;6.53;;;;;;;23.94;67.79;100208.11;1449342;89;22788;-92
2022/07/02 01:42:17;;;;;;;13.88;7.50;;;;;;;23.95;68.10;100211.94;1429152;89;22418;-93
2022/07/02 01:44:46;;;;;;;13.60;5.53;;;;;;;23.95;68.29;100213.28;1431538;89;21487;-92
2022/07/02 01:47:14;;;;;;;14.13;6.95;;;;;;;23.86;69.77;100226.36;1406970;93;21562;-92
2022/07/02 01:49:41;;;;;;;10.38;6.22;;;;;;;23.75;71.25;100255.58;1410390;93;21643;-90
2022/07/02 01:52:09;;;;;;;11.73;7.20;;;;;;;23.59;71.09;100279.23;1408731;93;21554;-91
2022/07/02 01:54:37;;;;;;;14.93;7.08;;;;;;;23.49;70.74;100269.58;1408132;93;21598;-90
2022/07/02 01:57:05;;;;;;;11.70;7.15;;;;;;;23.46;70.84;100280.86;1404178;93;21587;-90
2022/07/02 01:59:34;;;;;;;15.83;7.05;;;;;;;23.41;70.79;100278.31;1403624;91;21435;-90
2022/07/02 02:02:03;;;;;;;15.83;7.12;;;;;;;23.34;71.83;100288.44;1453837;89;21921;-90
2022/07/02 02:04:31;;;;;;;16.12;7.28;;;;;;;23.33;70.38;100281.40;1458213;89;21375;-90
2022/07/02 02:06:58;;;;;;;14.58;6.95;;;;;;;23.34;71.01;100291.13;1455833;89;21442;-90
2022/07/02 02:09:26;;;;;;;21.65;7.42;;;;;;;23.34;70.91;100307.87;1447235;89;21308;-91
2022/07/02 02:11:52;;;;;;;13.68;7.37;;;;;;;23.35;70.57;100303.56;1444839;89;21405;-91
2022/07/02 02:14:20;;;;;;;13.50;7.08;;;;;;;23.30;71.04;100318.29;1376916;94;21526;-91
2022/07/02 02:16:47;;;;;;;16.20;6.83;;;;;;;23.30;71.04;100318.29;1430461;91;21375;-91
2022/07/02 02:19:14;;;;;;;13.93;6.85;;;;;;;23.33;70.46;100315.16;1410233;93;21451;-91
2022/07/02 02:21:41;;;;;;;16.35;7.08;;;;;;;23.34;69.94;100322.19;1450104;89;22439;-90
2022/07/02 02:24:09;;;;;;;16.48;7.67;;;;;;;23.30;70.39;100339.89;1457745;89;21522;-91
2022/07/02 02:26:36;;;;;;;17.57;7.30;;;;;;;23.29;69.91;100340.96;1453953;89;21427;-91
2022/07/02 02:29:03;;;;;;;11.38;6.35;;;;;;;23.29;69.91;100340.96;1455636;89;21375;-92
2022/07/02 02:31:30;;;;;;;16.17;6.30;;;;;;;23.24;70.33;100346.23;1455307;89;22639;-92
2022/07/02 02:33:57;;;;;;;17.00;6.47;;;;;;;23.09;70.16;100361.53;1456864;89;21346;-93
2022/07/02 02:36:24;;;;;;;21.95;7.47;;;;;;;23.15;69.83;100376.80;1459605;89;21405;-91
2022/07/02 02:38:51;;;;;;;15.95;7.20;;;;;;;23.10;69.96;100378.54;1458853;89;22858;-92
2022/07/02 02:41:19;;;;;;;16.07;6.60;;;;;;;22.95;70.72;100378.97;1463791;89;21339;-93
2022/07/02 02:43:46;;;;;;;17.30;6.25;;;;;;;22.95;70.72;100378.97;1449173;89;21488;-93
2022/07/02 02:46:13;;;;;;;19.30;6.92;;;;;;;22.90;71.42;100390.45;1412376;91;22410;-93
2022/07/02 02:48:40;;;;;;;16.15;8.18;;;;;;;22.69;71.79;100379.61;1426070;90;22440;-92
2022/07/02 02:51:10;;;;;;;10.78;6.12;;;;;;;22.69;71.79;100379.61;1431033;91;21391;-91
2022/07/02 02:53:37;;;;;;;12.03;5.97;;;;;;;22.72;72.72;100395.88;1406707;93;21385;-93
2022/07/02 02:56:04;;;;;;;15.48;5.80;;;;;;;22.75;71.90;100403.50;1437492;91;21888;-92
2022/07/02 02:58:31;;;;;;;15.32;6.87;;;;;;;22.76;71.76;100411.92;1456898;89;21427;-92
2022/07/02 03:00:59;;;;;;;19.52;7.55;;;;;;;22.79;71.75;100419.55;1432516;91;21487;-92
2022/07/02 03:03:26;;;;;;;16.45;7.25;;;;;;;22.84;71.25;100427.77;1446710;89;21369;-92
2022/07/02 03:05:54;;;;;;;9.88;6.83;;;;;;;22.87;71.52;100434.08;1446215;89;21434;-91
2022/07/02 03:08:22;;;;;;;14.43;6.72;;;;;;;22.92;71.51;100432.84;1463364;89;21353;-91
2022/07/02 03:10:49;;;;;;;15.88;7.03;;;;;;;22.89;72.23;100411.72;1457356;89;21479;-91
2022/07/02 03:13:17;;;;;;;15.55;6.65;;;;;;;22.89;72.17;100426.56;1451621;89;22528;-92
2022/07/02 03:15:44;;;;;;;22.13;7.97;;;;;;;22.85;72.12;100437.52;1459436;89;21479;-93
2022/07/02 03:18:11;;;;;;;13.25;7.22;;;;;;;22.85;72.12;100437.52;1450098;89;21317;-92
2022/07/02 03:20:38;;;;;;;18.32;7.47;;;;;;;22.93;71.87;100442.61;1428509;91;22330;-92
2022/07/02 03:23:05;;;;;;;13.53;7.55;;;;;;;22.94;72.59;100455.03;1456161;89;21443;-92
2022/07/02 03:25:33;;;;;;;16.42;7.22;;;;;;;22.93;72.04;100458.80;1397711;93;21503;-92
2022/07/02 03:28:00;;;;;;;19.35;7.90;;;;;;;22.83;72.08;100447.71;1405996;93;21465;-92
2022/07/02 03:30:27;;;;;;;14.78;6.45;;;;;;;22.93;71.98;100465.55;1436665;89;21428;-92
2022/07/02 03:32:54;;;;;;;12.13;7.40;;;;;;;22.93;71.98;100465.55;1386391;94;22429;-92
2022/07/02 03:35:21;;;;;;;16.97;6.62;;;;;;;22.95;72.27;100475.59;1433322;91;21362;-92
2022/07/02 03:37:48;;;;;;;10.80;6.62;;;;;;;22.95;72.27;100475.59;1390540;92;22342;-92
2022/07/02 03:40:15;;;;;;;24.35;7.83;;;;;;;22.98;72.53;100498.61;1407934;91;22529;-93
2022/07/02 03:42:42;;;;;;;16.73;7.45;;;;;;;22.98;72.53;100499.88;1435277;89;21554;-91
2022/07/02 03:45:10;;;;;;;15.65;7.95;;;;;;;22.95;72.14;100499.88;1447894;89;21368;-91
2022/07/02 03:47:37;;;;;;;20.85;7.20;;;;;;;22.95;73.56;100526.88;1387591;93;21615;-91
2022/07/02 03:50:05;;;;;;;22.35;7.25;;;;;;;22.82;74.26;100513.53;1395456;93;21615;-91
2022/07/02 03:52:33;;;;;;;15.18;7.72;;;;;;;22.82;74.26;100524.32;1389237;94;21503;-91
2022/07/02 03:55:00;;;;;;;9.03;6.90;;;;;;;22.77;73.90;100509.86;1413389;91;21391;-91
2022/07/02 03:57:27;;;;;;;14.15;6.97;;;;;;;22.77;73.90;100509.86;1406848;92;22272;-91
2022/07/02 03:59:54;;;;;;;12.50;7.05;;;;;;;22.71;74.08;100507.54;1387368;94;21496;-91
2022/07/02 04:02:22;;;;;;;11.53;6.17;;;;;;;22.66;75.41;100525.73;1456621;89;21383;-91
2022/07/02 04:04:49;;;;;;;14.60;7.92;;;;;;;22.66;74.40;100535.70;1459922;89;21369;-91
2022/07/02 04:07:17;;;;;;;10.18;6.55;;;;;;;22.61;74.71;100539.06;1457433;89;21419;-93
2022/07/02 04:09:45;;;;;;;14.28;7.15;;;;;;;22.61;74.71;100539.06;1448522;89;22351;-93
2022/07/02 04:12:12;;;;;;;18.42;6.28;;;;;;;22.62;75.93;100542.61;1455097;89;22403;-90
2022/07/02 04:14:39;;;;;;;10.68;6.67;;;;;;;22.62;75.93;100542.61;1454955;89;21398;-89
2022/07/02 04:17:06;;;;;;;19.45;7.85;;;;;;;22.64;74.90;100544.04;1408757;93;21370;-90
2022/07/02 04:19:33;;;;;;;11.93;7.25;;;;;;;22.59;75.12;100524.18;1454960;89;21450;-90
2022/07/02 04:22:03;;;;;;;16.90;7.28;;;;;;;22.59;75.12;100524.18;1423973;91;23020;-94
2022/07/02 04:24:31;;;;;;;13.28;7.22;;;;;;;22.70;75.13;100538.24;1448952;89;22619;-92
2022/07/02 04:26:58;;;;;;;16.27;7.60;;;;;;;22.64;75.75;100535.09;1455997;89;23837;-91
2022/07/02 04:29:25;;;;;;;18.48;6.95;;;;;;;22.64;75.75;100535.09;1454659;89;23623;-91
2022/07/02 04:31:52;;;;;;;14.07;7.17;;;;;;;22.64;75.75;100531.91;1453420;89;21625;-91
2022/07/02 04:34:19;;;;;;;10.45;7.83;;;;;;;22.59;75.26;100532.27;1456434;89;21597;-91
2022/07/02 04:36:46;;;;;;;9.45;6.17;;;;;;;22.59;75.26;100532.27;1454003;89;21586;-91
2022/07/02 04:39:13;;;;;;;9.38;6.42;;;;;;;22.70;74.51;100544.98;1458267;89;21623;-90
2022/07/02 04:41:40;;;;;;;15.85;6.50;;;;;;;22.69;74.30;100543.34;1456473;89;22862;-90
2022/07/02 04:44:08;;;;;;;14.35;6.67;;;;;;;22.74;74.07;100544.33;1448682;89;21302;-90
2022/07/02 04:46:35;;;;;;;10.78;6.35;;;;;;;22.84;73.89;100543.78;1429212;91;21488;-90
2022/07/02 04:49:02;;;;;;;10.48;6.60;;;;;;;22.90;73.70;100546.11;1436543;89;21376;-90
2022/07/02 04:51:29;;;;;;;9.27;6.27;;;;;;;22.96;73.28;100547.43;1400964;93;21422;-91
2022/07/02 04:53:56;;;;;;;10.10;5.80;;;;;;;23.04;73.23;100557.08;1428975;89;21503;-92
2022/07/02 04:56:24;;;;;;;15.48;6.80;;;;;;;23.12;73.07;100555.95;1389656;94;21496;-91
2022/07/02 04:58:51;;;;;;;9.38;6.15;;;;;;;23.22;72.84;100556.25;1404649;92;21450;-92
2022/07/02 05:01:18;;;;;;;11.33;6.25;;;;;;;23.32;72.54;100548.41;1404574;91;21561;-92
2022/07/02 05:03:45;;;;;;;10.05;6.08;;;;;;;23.44;72.09;100543.05;1435559;91;22250;-92
2022/07/02 05:06:12;;;;;;;7.83;5.40;;;;;;;23.53;71.84;100536.80;1399953;92;22523;-92
2022/07/02 05:08:39;;;;;;;11.88;6.08;;;;;;;23.60;71.14;100538.88;1413136;91;21657;-92
2022/07/02 05:11:06;;;;;;;10.20;5.58;;;;;;;23.64;70.23;100542.76;1417927;91;21303;-92
2022/07/02 05:13:34;;;;;;;10.63;6.08;;;;;;;23.75;70.46;100532.54;1418809;90;21437;-92
2022/07/02 05:16:01;;;;;;;9.90;6.17;;;;;;;23.78;70.40;100530.72;1382050;92;21520;-92
2022/07/02 05:18:28;;;;;;;12.50;5.72;;;;;;;23.83;70.13;100527.34;1391826;94;21399;-92
2022/07/02 05:20:55;;;;;;;18.25;5.72;;;;;;;23.93;70.18;100529.45;1398878;92;21605;-92
2022/07/02 05:23:23;;;;;;;10.85;6.30;;;;;;;24.05;70.28;100527.58;1382908;94;21421;-92
2022/07/02 05:25:50;;;;;;;11.80;5.83;;;;;;;24.20;70.29;100525.25;1439882;91;21457;-93
2022/07/02 05:28:17;;;;;;;9.75;5.25;;;;;;;24.33;70.00;100523.64;1412004;91;21428;-91
2022/07/02 05:30:44;;;;;;;18.98;5.92;;;;;;;24.36;69.97;100526.41;1434758;91;22381;-91
2022/07/02 05:33:11;;;;;;;14.05;6.85;;;;;;;24.40;70.82;100533.51;1437341;91;21406;-92
2022/07/02 05:35:38;;;;;;;13.70;7.37;;;;;;;24.45;70.62;100534.48;1434115;91;21428;-90
2022/07/02 05:38:05;;;;;;;10.90;6.72;;;;;;;24.57;70.49;100543.97;1448840;90;21398;-91
2022/07/02 05:40:32;;;;;;;11.53;6.10;;;;;;;24.66;70.29;100543.06;1408305;93;21384;-91
2022/07/02 05:42:59;;;;;;;9.15;6.72;;;;;;;24.49;70.16;100548.38;1440266;91;22574;-91
2022/07/02 05:45:26;;;;;;;14.40;7.83;;;;;;;24.57;70.30;100559.34;1438449;90;21347;-92
2022/07/02 05:47:53;;;;;;;13.40;6.53;;;;;;;24.55;71.23;100578.55;1407049;92;21391;-92
2022/07/02 05:50:21;;;;;;;12.20;6.67;;;;;;;24.61;71.17;100588.95;1408525;93;21527;-91
2022/07/02 05:52:48;;;;;;;10.85;5.22;;;;;;;24.56;71.58;100588.83;1405752;93;21391;-92
2022/07/02 05:55:15;;;;;;;12.13;6.83;;;;;;;24.59;71.32;100590.52;1431741;91;22322;-92
2022/07/02 05:57:42;;;;;;;14.90;6.95;;;;;;;24.52;71.33;100591.19;1436640;90;22322;-91
2022/07/02 06:00:11;;;;;;;11.75;6.25;;;;;;;24.59;71.18;100595.94;1425947;91;21376;-90
2022/07/02 06:02:38;;;;;;;11.38;6.05;;;;;;;24.58;71.70;100591.59;1437729;91;21368;-90
2022/07/02 06:07:52;;;;;;;10.88;5.87;;;;;;;24.85;70.36;100593.80;1377770;94;21474;-90
2022/07/02 06:10:20;;;;;;;11.20;6.67;;;;;;;24.98;70.03;100591.66;1422691;91;21400;-90
2022/07/02 06:12:52;;;;;;;17.23;7.22;;;;;;;25.00;69.42;100594.11;1415715;91;21377;-90
2022/07/02 06:15:20;;;;;;;9.18;6.47;;;;;;;25.04;69.31;100598.00;1428527;91;21401;-91
2022/07/02 06:17:48;;;;;;;15.53;7.25;;;;;;;25.04;68.93;100600.70;1396167;93;21565;-90
2022/07/02 06:20:16;;;;;;;10.93;6.12;;;;;;;25.09;68.71;100605.39;1386315;94;21473;-89
2022/07/02 06:22:43;;;;;;;8.38;5.33;;;;;;;25.18;68.57;100609.42;1416064;92;21347;-90
2022/07/02 06:25:10;;;;;;;12.90;6.08;;;;;;;25.26;68.11;100604.14;1411463;91;21429;-88
2022/07/02 06:27:38;;;;;;;22.30;5.83;;;;;;;25.38;67.62;100603.05;1426401;91;22302;-91
2022/07/02 06:30:06;;;;;;;13.00;5.67;;;;;;;25.44;67.42;100617.52;1391630;94;21444;-89
2022/07/02 06:32:33;;;;;;;8.55;6.00;;;;;;;25.54;67.16;100612.82;1417553;91;21503;-92
2022/07/02 06:35:01;;;;;;;7.72;5.53;;;;;;;25.55;66.98;100620.72;1431352;91;22438;-90
2022/07/02 06:37:28;;;;;;;9.25;5.00;;;;;;;25.58;66.24;100620.23;1428554;91;21480;-91
2022/07/02 06:39:55;;;;;;;15.13;5.83;;;;;;;25.60;65.62;100616.73;1424921;90;22396;-91
2022/07/02 06:42:22;;;;;;;14.03;7.75;;;;;;;25.57;65.00;100619.11;1448849;89;21375;-90
2022/07/02 06:44:52;;;;;;;12.23;6.33;;;;;;;25.72;65.39;100615.34;1430170;89;22300;-92
2022/07/02 06:47:21;;;;;;;;;;;;;;;25.80;65.74;100622.23;1396415;94;21943;-90
2022/07/02 06:50:06;;;;;;;14.40;5.55;;;;;;;25.87;64.68;100614.83;1426667;91;20248;-90
2022/07/02 06:52:33;;;;;;;9.70;5.70;;;;;;;25.98;64.07;100623.94;1420595;91;21378;-91
2022/07/02 06:55:00;;;;;;;7.87;4.58;;;;;;;26.07;64.38;100622.48;1450068;89;23280;-90
2022/07/02 06:57:27;;;;;;;15.55;6.25;;;;;;;26.17;64.40;100621.28;1454960;90;22307;-91
2022/07/02 06:59:54;;;;;;;10.48;5.85;;;;;;;26.32;64.34;100628.30;1455236;90;21346;-90
2022/07/02 07:02:22;;;;;;;11.43;6.08;;;;;;;26.51;63.78;100616.70;1460929;89;21510;-87
2022/07/02 07:04:49;;;;;;;9.25;6.72;;;;;;;26.57;62.98;100619.50;1442392;89;23203;-89
2022/07/02 07:07:18;;;;;;;7.65;6.12;;;;;;;26.66;62.78;100612.56;1434313;89;21569;-89
2022/07/02 07:09:45;;;;;;;12.85;6.15;;;;;;;26.78;62.66;100614.62;1407179;93;21547;-88
2022/07/02 07:12:12;;;;;;;12.25;5.08;;;;;;;26.80;61.76;100620.64;1424010;91;21392;-91
2022/07/02 07:14:39;;;;;;;9.63;5.67;;;;;;;26.84;60.53;100621.77;1426008;90;21532;-90
2022/07/02 07:17:07;;;;;;;9.13;5.87;;;;;;;26.99;61.09;100627.42;1425810;91;21551;-88
2022/07/02 07:19:34;;;;;;;7.25;6.10;;;;;;;26.95;60.34;100628.98;1426275;91;21509;-90
2022/07/02 07:22:01;;;;;;;11.12;7.72;;;;;;;26.96;60.44;100626.58;1424292;91;21365;-89
2022/07/02 07:24:29;;;;;;;14.80;6.67;;;;;;;27.10;60.70;100612.05;1413383;91;21407;-89
2022/07/02 07:27:01;;;;;;;17.12;6.37;;;;;;;27.32;61.03;100607.20;1433859;91;21487;-90
2022/07/02 07:29:26;;;;;;;6.80;5.85;;;;;;;27.50;60.42;100608.20;1421265;91;21405;-88
2022/07/02 07:31:54;;;;;;;10.78;5.58;;;;;;;27.70;59.78;100617.11;1424851;91;21421;-91
2022/07/02 07:34:22;;;;;;;8.85;5.20;;;;;;;27.70;57.95;100618.47;1428346;91;21413;-91
2022/07/02 07:36:55;;;;;;;14.83;5.75;;;;;;;27.63;57.17;100613.25;1427537;91;22064;-92
2022/07/02 07:39:23;;;;;;;12.88;5.85;;;;;;;27.61;58.61;100615.94;1426841;91;21436;-93
2022/07/02 07:41:50;;;;;;;9.60;5.58;;;;;;;27.54;58.00;100620.22;1420615;91;21429;-92
2022/07/02 07:44:17;;;;;;;8.68;5.22;;;;;;;27.63;57.67;100613.79;1448857;89;21663;-92
2022/07/02 07:46:44;;;;;;;10.88;6.05;;;;;;;27.77;57.48;100620.45;1457050;89;21626;-90
2022/07/02 07:49:11;;;;;;;7.83;4.62;;;;;;;28.01;57.68;100614.72;1434095;90;21413;-91
2022/07/02 07:51:38;;;;;;;11.25;4.65;;;;;;;28.25;56.62;100620.06;1434483;90;21398;-91
2022/07/02 07:54:11;;;;;;;6.97;4.95;;;;;;;28.38;55.34;100625.62;1433396;90;22433;-91
2022/07/02 07:56:41;;;;;;;11.48;5.10;;;;;;;28.53;55.06;100626.30;1432257;90;22581;-90
2022/07/02 07:59:09;;;;;;;13.50;5.35;;;;;;;28.65;55.12;100631.00;1430655;91;21406;-91
2022/07/02 08:01:36;;;;;;;8.25;5.35;;;;;;;28.79;54.76;100628.09;1435013;89;21590;-91
2022/07/02 08:04:04;;;;;;;6.97;5.12;;;;;;;28.93;53.85;100634.43;1439405;89;21585;-92
2022/07/02 08:06:32;;;;;;;7.87;4.55;;;;;;;28.89;53.50;100634.70;1426076;91;21405;-93
2022/07/02 08:08:59;;;;;;;16.48;5.45;;;;;;;29.01;53.05;100642.11;1399932;93;21535;-93
2022/07/02 08:11:27;;;;;;;7.33;4.78;;;;;;;29.08;53.37;100635.89;1391894;93;21473;-93
2022/07/02 08:13:56;;;;;;;6.92;5.00;;;;;;;29.00;52.70;100637.20;1444435;89;21302;-93
2022/07/02 08:16:26;;;;;;;8.85;4.33;;;;;;;29.25;53.48;100641.14;1447148;89;21427;-93
2022/07/02 08:18:59;;;;;;;6.05;4.75;;;;;;;29.48;52.98;100639.85;1452167;90;21421;-93
2022/07/02 08:21:26;;;;;;;12.78;5.67;;;;;;;29.62;52.17;100639.66;1404946;93;21480;-92
2022/07/02 08:23:54;;;;;;;8.58;5.10;;;;;;;29.47;51.37;100646.41;1395035;91;22308;-94
2022/07/02 08:26:25;;;;;;;9.95;5.20;;;;;;;29.47;51.55;100638.23;1420554;91;21681;-94
2022/07/02 08:28:55;;;;;;;13.85;4.83;;;;;;;29.40;50.86;100637.64;1441146;91;21405;-92
2022/07/02 08:31:22;;;;;;;5.80;4.80;;;;;;;29.26;51.34;100644.68;1428323;91;21517;-93
2022/07/02 08:33:52;;;;;;;4.80;4.40;;;;;;;29.17;51.74;100643.83;1428566;89;22381;-93
2022/07/02 08:36:20;;;;;;;8.03;4.97;;;;;;;29.09;50.88;100645.72;1372885;94;21421;-92
2022/07/02 08:38:50;;;;;;;14.20;4.53;;;;;;;29.04;50.68;100642.16;1414871;92;22397;-93
2022/07/02 08:41:18;;;;;;;7.85;5.47;;;;;;;29.08;51.09;100645.42;1439038;89;21376;-93
2022/07/02 08:43:47;;;;;;;7.17;4.87;;;;;;;29.09;51.62;100651.69;1449113;88;21340;-92
2022/07/02 08:46:15;;;;;;;12.00;4.83;;;;;;;29.38;51.49;100654.28;1454075;88;21405;-94
2022/07/02 08:48:44;;;;;;;10.85;5.42;;;;;;;29.34;50.63;100655.08;1450622;89;21391;-94
2022/07/02 08:51:14;;;;;;;13.25;5.50;;;;;;;29.46;49.99;100655.66;1458557;89;21686;-93
2022/07/02 08:53:41;;;;;;;12.20;5.67;;;;;;;29.66;50.43;100653.04;1426461;91;21591;-91
2022/07/02 08:56:11;;;;;;;6.33;5.35;;;;;;;29.77;51.07;100650.31;1428146;91;21521;-93
2022/07/02 08:58:39;;;;;;;15.13;5.37;;;;;;;29.78;50.43;100647.85;1429101;91;22485;-92
2022/07/02 09:01:08;;;;;;;5.15;4.42;;;;;;;29.80;50.23;100649.22;1426557;91;22300;-93
2022/07/02 09:03:37;;;;;;;10.43;5.28;;;;;;;29.68;50.05;100638.56;1422636;91;21554;-94
2022/07/02 09:06:06;;;;;;;;;;;;;;;29.91;50.52;100649.52;1423635;91;22560;-94
2022/07/02 09:08:35;;;;;;;6.97;5.10;;;;;;;30.05;50.23;100647.08;1417282;91;21604;-93
2022/07/02 09:11:30;;;;;;;6.12;4.75;;;;;;;30.24;49.06;100641.09;1404035;93;21398;-92
2022/07/02 09:13:57;;;;;;;8.78;4.67;;;;;;;30.25;47.80;100642.75;1446792;91;21376;-92
2022/07/02 09:16:25;;;;;;;6.08;4.17;;;;;;;30.14;44.29;100645.98;1417341;91;21376;-93
2022/07/02 09:18:52;;;;;;;7.85;3.77;;;;;;;30.42;46.54;100641.92;1435456;91;21458;-91
2022/07/02 09:21:22;;;;;;;6.95;4.30;;;;;;;30.57;45.06;100644.62;1411534;91;21554;-93
2022/07/02 09:23:50;;;;;;;12.68;5.53;;;;;;;30.82;45.28;100640.24;1440174;90;21391;-92
2022/07/02 09:26:23;;;;;;;8.98;3.72;;;;;;;30.84;44.91;100636.66;1418237;91;21428;-94
2022/07/02 09:28:56;;;;;;;7.72;4.40;;;;;;;30.94;44.26;100631.17;1414324;91;21514;-93
2022/07/02 09:31:23;;;;;;;10.55;3.98;;;;;;;31.08;44.54;100633.33;1446277;89;21471;-95
2022/07/02 09:33:50;;;;;;;5.97;4.40;;;;;;;30.86;44.04;100633.11;1456246;89;22380;-93
2022/07/02 09:36:17;;;;;;;7.75;3.85;;;;;;;31.04;44.93;100631.67;1461373;89;21339;-91
2022/07/02 09:38:48;;;;;;;5.92;3.80;;;;;;;31.33;44.73;100631.00;1432068;89;21353;-92
2022/07/02 09:41:23;;;;;;;8.78;3.98;;;;;;;31.40;43.23;100630.20;1449722;89;22263;-93
2022/07/02 09:43:59;;;;;;;4.78;3.20;;;;;;;31.26;42.07;100624.48;1399784;93;22338;-93
2022/07/02 09:46:28;;;;;;;5.20;3.70;;;;;;;31.51;43.54;100617.28;1423990;91;21340;-92
2022/07/02 09:49:07;;;;;;;8.18;3.60;;;;;;;31.76;43.03;100619.83;1419282;91;21532;-92
2022/07/02 09:51:49;;;;;;;11.43;4.60;;;;;;;31.82;42.67;100621.45;1452509;89;21414;-93
2022/07/02 09:54:22;;;;;;;9.10;4.67;;;;;;;31.83;43.29;100618.97;1436986;89;22418;-93
2022/07/02 09:56:55;;;;;;;8.95;4.15;;;;;;;31.68;43.12;100614.43;1405113;93;22595;-95
2022/07/02 09:59:23;;;;;;;5.08;4.08;;;;;;;31.82;43.02;100612.40;1421195;91;21436;-93
2022/07/02 10:01:51;;;;;;;6.80;3.83;;;;;;;31.91;43.06;100614.30;1430437;91;21318;-93
2022/07/02 10:04:31;;;;;;;7.95;3.65;;;;;;;31.96;42.31;100605.77;1408390;93;21407;-93
2022/07/02 10:07:00;;;;;;;4.80;3.52;;;;;;;31.93;41.66;100607.15;1438389;91;22293;-94
2022/07/02 10:09:28;;;;;;;4.28;3.42;;;;;;;32.17;41.81;100611.34;1447770;89;21583;-93
2022/07/02 10:11:57;;;;;;;13.08;4.35;;;;;;;32.34;41.42;100608.15;1411055;93;21383;-93
2022/07/02 10:14:27;;;;;;;4.08;2.92;;;;;;;32.36;40.62;100604.02;1439136;91;21414;-93
2022/07/02 10:16:56;;;;;;;6.97;3.90;;;;;;;32.41;40.41;100602.36;1421403;91;22293;-94
2022/07/02 10:19:24;;;;;;;9.20;3.80;;;;;;;32.34;40.04;100599.41;1448839;89;21488;-94
2022/07/02 10:21:52;;;;;;;7.72;4.17;;;;;;;32.23;40.86;100599.23;1413103;93;22323;-94
2022/07/02 10:24:21;;;;;;;10.05;4.30;;;;;;;32.30;41.28;100599.70;1434005;91;22294;-92
2022/07/02 10:26:50;;;;;;;7.35;3.42;;;;;;;32.57;40.69;100601.09;1442005;90;21525;-93
2022/07/02 10:29:18;;;;;;;4.85;3.62;;;;;;;32.81;40.27;100600.56;1439469;90;21311;-94
2022/07/02 10:31:50;;;;;;;5.58;3.75;;;;;;;32.66;39.73;100588.42;1437099;90;21436;-93
2022/07/02 10:34:47;;;;;;;7.70;3.90;;;;;;;32.89;40.03;100596.93;1400377;93;21540;-93
2022/07/02 10:37:16;;;;;;;9.28;4.00;;;;;;;32.97;39.57;100602.58;1455946;89;21398;-93
2022/07/02 10:39:43;;;;;;;12.93;4.35;;;;;;;32.69;41.19;100606.20;1408484;93;21421;-94
2022/07/02 10:42:11;;;;;;;12.98;4.72;;;;;;;32.59;41.51;100605.19;1454187;89;21288;-94
2022/07/02 10:44:42;;;;;;;8.23;4.80;;;;;;;32.42;42.45;100606.72;1412209;93;21391;-93
2022/07/02 10:47:25;;;;;;;5.92;4.33;;;;;;;32.39;42.37;100607.30;1415038;93;21421;-92
2022/07/02 10:49:59;;;;;;;6.50;4.83;;;;;;;32.45;43.09;100606.13;1428134;91;21908;-93
2022/07/02 10:52:50;;;;;;;7.05;4.55;;;;;;;32.62;42.38;100607.09;1450927;89;21354;-93
2022/07/02 10:55:30;;;;;;;8.83;4.47;;;;;;;32.54;42.26;100607.16;1452535;90;22470;-93
2022/07/02 10:58:05;;;;;;;7.05;5.05;;;;;;;32.34;41.18;100610.36;1436833;91;21406;-93
2022/07/02 11:00:39;;;;;;;7.92;5.10;;;;;;;32.22;42.25;100612.64;1453801;89;22388;-94
2022/07/02 11:03:20;;;;;;;7.15;4.50;;;;;;;32.34;42.15;100616.37;1416921;93;22041;-93
2022/07/02 11:06:03;;;;;;;9.60;5.90;;;;;;;32.60;41.33;100615.61;1449700;89;21457;-92
2022/07/02 11:08:46;;;;;;;8.00;4.25;;;;;;;32.60;40.87;100614.25;1454941;90;21531;-93
2022/07/02 11:11:22;;;;;;;11.05;4.75;;;;;;;32.58;40.95;100615.89;1456168;90;21360;-92
2022/07/02 11:14:00;;;;;;;6.17;4.95;;;;;;;32.42;41.20;100617.67;1411852;93;21480;-91
2022/07/02 11:16:34;;;;;;;6.47;3.90;;;;;;;32.66;41.12;100624.04;1429427;91;22337;-93
2022/07/02 11:19:01;;;;;;;5.50;4.35;;;;;;;32.99;40.88;100619.55;1448929;89;21450;-93
2022/07/02 11:21:29;;;;;;;15.70;5.05;;;;;;;32.88;39.29;100614.46;1447571;90;21413;-91
2022/07/02 11:23:57;;;;;;;8.10;4.80;;;;;;;32.93;39.75;100611.67;1449690;90;21376;-93
2022/07/02 11:26:28;;;;;;;6.80;4.65;;;;;;;32.91;38.78;100616.62;1416889;93;21377;-93
2022/07/02 11:28:57;;;;;;;7.70;4.47;;;;;;;33.20;39.50;100613.81;1433921;91;22156;-94
2022/07/02 11:31:24;;;;;;;17.25;5.12;;;;;;;32.77;38.77;100612.39;1404228;93;21450;-93
2022/07/02 11:33:56;;;;;;;6.42;5.45;;;;;;;33.04;38.87;100613.20;1412887;93;22528;-93